sensor_id;sensor_type;location;lat;lon;timestamp;P1;durP1;ratioP1;P2;durP2;ratioP2
33780;SDS011;20097;50.832;19.100;2023-02-15T00:02:03;26.20;;;18.10;;
33780;SDS011;20097;50.832;19.100;2023-02-15T00:07:08;28.60;;;19.13;;
33780;SDS011;20097;50.832;19.100;2023-02-15T00:12:13;28.80;;;18.45;;
33780;SDS011;20097;50.832;19.100;2023-02-15T00:17:20;31.77;;;19.25;;
33780;SDS011;20097;50.832;19.100;2023-02-15T00:22:25;26.42;;;18.08;;
33780;SDS011;20097;50.832;19.100;2023-02-15T00:27:29;27.23;;;18.45;;
33780;SDS011;20097;50.832;19.100;2023-02-15T00:32:35;25.80;;;18.05;;
33780;SDS011;20097;50.832;19.100;2023-02-15T00:37:39;38.13;;;20.95;;
33780;SDS011;20097;50.832;19.100;2023-02-15T00:47:50;30.30;;;19.80;;
33780;SDS011;20097;50.832;19.100;2023-02-15T00:52:55;30.15;;;20.20;;
33780;SDS011;20097;50.832;19.100;2023-02-15T00:58:01;31.50;;;21.48;;
33780;SDS011;20097;50.832;19.100;2023-02-15T01:03:07;36.85;;;21.60;;
33780;SDS011;20097;50.832;19.100;2023-02-15T01:08:11;35.40;;;21.88;;
33780;SDS011;20097;50.832;19.100;2023-02-15T01:13:16;39.90;;;21.52;;
33780;SDS011;20097;50.832;19.100;2023-02-15T01:18:22;30.67;;;21.38;;
33780;SDS011;20097;50.832;19.100;2023-02-15T01:23:27;35.95;;;23.65;;
33780;SDS011;20097;50.832;19.100;2023-02-15T01:28:31;32.08;;;22.75;;
33780;SDS011;20097;50.832;19.100;2023-02-15T01:33:38;32.97;;;22.27;;
33780;SDS011;20097;50.832;19.100;2023-02-15T01:38:44;37.53;;;24.73;;
33780;SDS011;20097;50.832;19.100;2023-02-15T01:43:50;38.15;;;23.08;;
33780;SDS011;20097;50.832;19.100;2023-02-15T01:48:59;39.15;;;24.83;;
33780;SDS011;20097;50.832;19.100;2023-02-15T01:54:11;39.72;;;25.55;;
33780;SDS011;20097;50.832;19.100;2023-02-15T01:59:22;49.58;;;30.40;;
33780;SDS011;20097;50.832;19.100;2023-02-15T02:04:31;60.63;;;33.38;;
33780;SDS011;20097;50.832;19.100;2023-02-15T02:09:43;71.53;;;38.00;;
33780;SDS011;20097;50.832;19.100;2023-02-15T02:14:48;71.93;;;37.22;;
33780;SDS011;20097;50.832;19.100;2023-02-15T02:31:52;57.65;;;31.30;;
33780;SDS011;20097;50.832;19.100;2023-02-15T02:42:35;55.42;;;30.50;;
33780;SDS011;20097;50.832;19.100;2023-02-15T02:47:43;69.78;;;34.72;;
33780;SDS011;20097;50.832;19.100;2023-02-15T02:52:54;57.17;;;33.60;;
33780;SDS011;20097;50.832;19.100;2023-02-15T02:58:01;54.10;;;32.58;;
33780;SDS011;20097;50.832;19.100;2023-02-15T03:03:12;57.20;;;32.33;;
33780;SDS011;20097;50.832;19.100;2023-02-15T03:08:23;53.88;;;31.50;;
33780;SDS011;20097;50.832;19.100;2023-02-15T03:13:31;54.58;;;30.00;;
33780;SDS011;20097;50.832;19.100;2023-02-15T03:18:40;51.88;;;29.25;;
33780;SDS011;20097;50.832;19.100;2023-02-15T03:23:58;49.38;;;28.80;;
33780;SDS011;20097;50.832;19.100;2023-02-15T03:29:07;50.50;;;27.65;;
33780;SDS011;20097;50.832;19.100;2023-02-15T03:34:14;50.33;;;28.75;;
33780;SDS011;20097;50.832;19.100;2023-02-15T03:39:24;46.33;;;25.98;;
33780;SDS011;20097;50.832;19.100;2023-02-15T03:44:36;51.83;;;28.42;;
33780;SDS011;20097;50.832;19.100;2023-02-15T03:49:55;49.17;;;29.95;;
33780;SDS011;20097;50.832;19.100;2023-02-15T03:55:06;45.13;;;27.17;;
33780;SDS011;20097;50.832;19.100;2023-02-15T04:00:12;53.90;;;29.23;;
33780;SDS011;20097;50.832;19.100;2023-02-15T04:05:37;49.72;;;28.10;;
33780;SDS011;20097;50.832;19.100;2023-02-15T04:10:43;59.67;;;30.08;;
33780;SDS011;20097;50.832;19.100;2023-02-15T04:16:00;47.65;;;27.13;;
33780;SDS011;20097;50.832;19.100;2023-02-15T04:21:11;49.47;;;27.92;;
33780;SDS011;20097;50.832;19.100;2023-02-15T04:26:35;54.70;;;28.60;;
33780;SDS011;20097;50.832;19.100;2023-02-15T04:31:40;43.85;;;28.48;;
33780;SDS011;20097;50.832;19.100;2023-02-15T04:36:45;50.95;;;29.35;;
33780;SDS011;20097;50.832;19.100;2023-02-15T04:41:51;47.28;;;26.23;;
33780;SDS011;20097;50.832;19.100;2023-02-15T04:46:56;54.72;;;31.77;;
33780;SDS011;20097;50.832;19.100;2023-02-15T04:52:00;47.03;;;27.30;;
33780;SDS011;20097;50.832;19.100;2023-02-15T04:57:06;50.90;;;26.75;;
33780;SDS011;20097;50.832;19.100;2023-02-15T05:02:10;42.65;;;26.30;;
33780;SDS011;20097;50.832;19.100;2023-02-15T05:07:15;47.13;;;28.98;;
33780;SDS011;20097;50.832;19.100;2023-02-15T05:12:21;44.53;;;26.27;;
33780;SDS011;20097;50.832;19.100;2023-02-15T05:17:26;48.17;;;25.85;;
33780;SDS011;20097;50.832;19.100;2023-02-15T05:22:30;45.47;;;25.27;;
33780;SDS011;20097;50.832;19.100;2023-02-15T05:27:36;43.13;;;26.98;;
33780;SDS011;20097;50.832;19.100;2023-02-15T05:32:58;42.30;;;25.58;;
33780;SDS011;20097;50.832;19.100;2023-02-15T05:38:02;52.35;;;28.92;;
33780;SDS011;20097;50.832;19.100;2023-02-15T05:43:08;45.83;;;26.67;;
33780;SDS011;20097;50.832;19.100;2023-02-15T05:48:13;46.15;;;26.58;;
33780;SDS011;20097;50.832;19.100;2023-02-15T05:53:17;50.67;;;30.02;;
33780;SDS011;20097;50.832;19.100;2023-02-15T05:58:23;53.22;;;28.08;;
33780;SDS011;20097;50.832;19.100;2023-02-15T06:03:28;48.42;;;28.73;;
33780;SDS011;20097;50.832;19.100;2023-02-15T06:08:33;49.80;;;26.73;;
33780;SDS011;20097;50.832;19.100;2023-02-15T06:13:42;39.70;;;24.52;;
33780;SDS011;20097;50.832;19.100;2023-02-15T06:18:47;40.20;;;24.15;;
33780;SDS011;20097;50.832;19.100;2023-02-15T06:23:54;49.58;;;26.17;;
33780;SDS011;20097;50.832;19.100;2023-02-15T06:29:00;39.22;;;21.88;;
33780;SDS011;20097;50.832;19.100;2023-02-15T06:34:06;42.90;;;23.75;;
33780;SDS011;20097;50.832;19.100;2023-02-15T06:39:10;45.83;;;23.92;;
33780;SDS011;20097;50.832;19.100;2023-02-15T06:44:16;49.72;;;28.45;;
33780;SDS011;20097;50.832;19.100;2023-02-15T06:49:20;46.53;;;24.35;;
33780;SDS011;20097;50.832;19.100;2023-02-15T06:54:24;44.33;;;26.23;;
33780;SDS011;20097;50.832;19.100;2023-02-15T06:59:30;50.90;;;27.30;;
33780;SDS011;20097;50.832;19.100;2023-02-15T07:04:35;48.63;;;25.90;;
33780;SDS011;20097;50.832;19.100;2023-02-15T07:14:45;52.72;;;27.45;;
33780;SDS011;20097;50.832;19.100;2023-02-15T07:19:49;50.33;;;25.67;;
33780;SDS011;20097;50.832;19.100;2023-02-15T07:24:54;50.83;;;26.60;;
33780;SDS011;20097;50.832;19.100;2023-02-15T07:35:07;48.55;;;26.35;;
33780;SDS011;20097;50.832;19.100;2023-02-15T07:40:11;43.22;;;24.55;;
33780;SDS011;20097;50.832;19.100;2023-02-15T07:45:18;48.03;;;26.27;;
33780;SDS011;20097;50.832;19.100;2023-02-15T07:50:22;45.92;;;25.13;;
33780;SDS011;20097;50.832;19.100;2023-02-15T07:55:27;44.47;;;23.02;;
33780;SDS011;20097;50.832;19.100;2023-02-15T08:05:57;47.33;;;25.77;;
33780;SDS011;20097;50.832;19.100;2023-02-15T08:11:04;46.58;;;26.63;;
33780;SDS011;20097;50.832;19.100;2023-02-15T08:16:33;46.13;;;23.25;;
33780;SDS011;20097;50.832;19.100;2023-02-15T08:21:40;48.38;;;25.20;;
33780;SDS011;20097;50.832;19.100;2023-02-15T08:26:47;54.45;;;28.38;;
33780;SDS011;20097;50.832;19.100;2023-02-15T08:31:54;55.67;;;26.85;;
33780;SDS011;20097;50.832;19.100;2023-02-15T08:37:01;50.38;;;26.40;;
33780;SDS011;20097;50.832;19.100;2023-02-15T08:42:06;48.60;;;25.60;;
33780;SDS011;20097;50.832;19.100;2023-02-15T08:47:12;53.08;;;27.05;;
33780;SDS011;20097;50.832;19.100;2023-02-15T08:52:19;48.17;;;25.55;;
33780;SDS011;20097;50.832;19.100;2023-02-15T08:57:24;52.00;;;25.75;;
33780;SDS011;20097;50.832;19.100;2023-02-15T09:02:29;52.92;;;27.33;;
33780;SDS011;20097;50.832;19.100;2023-02-15T09:07:34;54.33;;;27.23;;
33780;SDS011;20097;50.832;19.100;2023-02-15T09:12:38;57.45;;;28.88;;
33780;SDS011;20097;50.832;19.100;2023-02-15T09:17:46;63.17;;;31.90;;
33780;SDS011;20097;50.832;19.100;2023-02-15T09:22:51;58.13;;;28.95;;
33780;SDS011;20097;50.832;19.100;2023-02-15T09:27:59;55.83;;;29.20;;
33780;SDS011;20097;50.832;19.100;2023-02-15T09:33:05;60.25;;;30.90;;
33780;SDS011;20097;50.832;19.100;2023-02-15T09:38:09;53.97;;;25.45;;
33780;SDS011;20097;50.832;19.100;2023-02-15T09:43:16;47.58;;;25.60;;
33780;SDS011;20097;50.832;19.100;2023-02-15T09:48:40;49.53;;;26.92;;
33780;SDS011;20097;50.832;19.100;2023-02-15T09:53:52;47.78;;;25.73;;
33780;SDS011;20097;50.832;19.100;2023-02-15T09:59:16;44.47;;;23.80;;
33780;SDS011;20097;50.832;19.100;2023-02-15T10:04:36;42.55;;;24.67;;
33780;SDS011;20097;50.832;19.100;2023-02-15T10:10:03;48.45;;;25.73;;
33780;SDS011;20097;50.832;19.100;2023-02-15T10:15:24;50.50;;;26.85;;
33780;SDS011;20097;50.832;19.100;2023-02-15T10:20:49;50.80;;;28.10;;
33780;SDS011;20097;50.832;19.100;2023-02-15T10:26:04;43.22;;;24.77;;
33780;SDS011;20097;50.832;19.100;2023-02-15T10:31:22;51.60;;;24.58;;
33780;SDS011;20097;50.832;19.100;2023-02-15T10:36:35;44.25;;;26.05;;
33780;SDS011;20097;50.832;19.100;2023-02-15T10:42:10;41.95;;;22.48;;
33780;SDS011;20097;50.832;19.100;2023-02-15T10:53:16;45.35;;;26.77;;
33780;SDS011;20097;50.832;19.100;2023-02-15T10:59:05;46.22;;;24.55;;
33780;SDS011;20097;50.832;19.100;2023-02-15T11:10:18;47.15;;;26.90;;
33780;SDS011;20097;50.832;19.100;2023-02-15T11:15:32;47.22;;;27.10;;
33780;SDS011;20097;50.832;19.100;2023-02-15T11:20:42;55.03;;;29.25;;
33780;SDS011;20097;50.832;19.100;2023-02-15T11:25:58;54.72;;;28.48;;
33780;SDS011;20097;50.832;19.100;2023-02-15T11:31:11;58.05;;;30.63;;
33780;SDS011;20097;50.832;19.100;2023-02-15T11:41:29;52.80;;;28.23;;
33780;SDS011;20097;50.832;19.100;2023-02-15T11:46:40;57.45;;;26.65;;
33780;SDS011;20097;50.832;19.100;2023-02-15T11:56:51;49.22;;;26.83;;
33780;SDS011;20097;50.832;19.100;2023-02-15T12:01:56;55.80;;;28.20;;
33780;SDS011;20097;50.832;19.100;2023-02-15T12:07:02;52.00;;;28.63;;
33780;SDS011;20097;50.832;19.100;2023-02-15T12:12:23;50.80;;;27.95;;
33780;SDS011;20097;50.832;19.100;2023-02-15T12:17:30;51.22;;;27.90;;
33780;SDS011;20097;50.832;19.100;2023-02-15T12:22:37;49.92;;;27.88;;
33780;SDS011;20097;50.832;19.100;2023-02-15T12:27:50;50.08;;;28.98;;
33780;SDS011;20097;50.832;19.100;2023-02-15T12:32:56;50.55;;;28.23;;
33780;SDS011;20097;50.832;19.100;2023-02-15T12:38:21;51.50;;;29.85;;
33780;SDS011;20097;50.832;19.100;2023-02-15T12:43:32;49.92;;;26.15;;
33780;SDS011;20097;50.832;19.100;2023-02-15T12:48:38;51.20;;;28.58;;
33780;SDS011;20097;50.832;19.100;2023-02-15T12:53:42;46.77;;;27.57;;
33780;SDS011;20097;50.832;19.100;2023-02-15T12:58:48;45.08;;;25.35;;
33780;SDS011;20097;50.832;19.100;2023-02-15T13:04:13;47.47;;;25.45;;
33780;SDS011;20097;50.832;19.100;2023-02-15T13:09:26;44.92;;;24.25;;
33780;SDS011;20097;50.832;19.100;2023-02-15T13:14:44;48.08;;;24.88;;
33780;SDS011;20097;50.832;19.100;2023-02-15T13:19:53;40.88;;;23.98;;
33780;SDS011;20097;50.832;19.100;2023-02-15T13:24:59;41.42;;;21.70;;
33780;SDS011;20097;50.832;19.100;2023-02-15T13:30:23;37.15;;;23.73;;
33780;SDS011;20097;50.832;19.100;2023-02-15T13:35:35;35.72;;;22.58;;
33780;SDS011;20097;50.832;19.100;2023-02-15T13:40:48;34.42;;;21.95;;
33780;SDS011;20097;50.832;19.100;2023-02-15T13:46:03;38.05;;;23.13;;
33780;SDS011;20097;50.832;19.100;2023-02-15T13:51:21;41.33;;;24.15;;
33780;SDS011;20097;50.832;19.100;2023-02-15T13:56:45;42.15;;;23.48;;
33780;SDS011;20097;50.832;19.100;2023-02-15T14:02:18;41.33;;;22.80;;
33780;SDS011;20097;50.832;19.100;2023-02-15T14:07:49;42.53;;;22.60;;
33780;SDS011;20097;50.832;19.100;2023-02-15T14:19:02;40.53;;;23.13;;
33780;SDS011;20097;50.832;19.100;2023-02-15T14:24:23;39.65;;;22.83;;
33780;SDS011;20097;50.832;19.100;2023-02-15T14:29:40;38.65;;;22.95;;
33780;SDS011;20097;50.832;19.100;2023-02-15T14:34:54;37.00;;;20.33;;
33780;SDS011;20097;50.832;19.100;2023-02-15T14:40:02;38.25;;;21.75;;
33780;SDS011;20097;50.832;19.100;2023-02-15T14:45:34;38.42;;;22.08;;
33780;SDS011;20097;50.832;19.100;2023-02-15T14:50:47;36.58;;;20.77;;
33780;SDS011;20097;50.832;19.100;2023-02-15T15:01:29;35.95;;;21.23;;
33780;SDS011;20097;50.832;19.100;2023-02-15T15:06:40;40.15;;;20.40;;
33780;SDS011;20097;50.832;19.100;2023-02-15T15:11:47;38.83;;;22.15;;
33780;SDS011;20097;50.832;19.100;2023-02-15T15:16:53;40.78;;;23.60;;
33780;SDS011;20097;50.832;19.100;2023-02-15T15:22:03;40.28;;;22.45;;
33780;SDS011;20097;50.832;19.100;2023-02-15T15:32:58;49.75;;;24.38;;
33780;SDS011;20097;50.832;19.100;2023-02-15T15:38:22;51.90;;;26.40;;
33780;SDS011;20097;50.832;19.100;2023-02-15T15:43:59;46.60;;;24.25;;
33780;SDS011;20097;50.832;19.100;2023-02-15T15:49:54;55.92;;;27.33;;
33780;SDS011;20097;50.832;19.100;2023-02-15T15:55:03;67.05;;;28.27;;
33780;SDS011;20097;50.832;19.100;2023-02-15T16:00:30;53.60;;;26.77;;
33780;SDS011;20097;50.832;19.100;2023-02-15T16:05:42;56.45;;;28.58;;
33780;SDS011;20097;50.832;19.100;2023-02-15T16:10:49;54.55;;;28.50;;
33780;SDS011;20097;50.832;19.100;2023-02-15T16:15:53;52.55;;;25.42;;
33780;SDS011;20097;50.832;19.100;2023-02-15T16:20:59;52.92;;;26.10;;
33780;SDS011;20097;50.832;19.100;2023-02-15T16:26:07;51.72;;;27.90;;
33780;SDS011;20097;50.832;19.100;2023-02-15T16:31:22;57.42;;;26.35;;
33780;SDS011;20097;50.832;19.100;2023-02-15T16:36:27;60.83;;;26.95;;
33780;SDS011;20097;50.832;19.100;2023-02-15T16:41:33;52.88;;;25.90;;
33780;SDS011;20097;50.832;19.100;2023-02-15T16:46:40;50.65;;;25.23;;
33780;SDS011;20097;50.832;19.100;2023-02-15T16:51:53;58.65;;;25.55;;
33780;SDS011;20097;50.832;19.100;2023-02-15T16:57:02;50.95;;;25.50;;
33780;SDS011;20097;50.832;19.100;2023-02-15T17:02:10;53.28;;;23.95;;
33780;SDS011;20097;50.832;19.100;2023-02-15T17:07:39;57.28;;;26.33;;
33780;SDS011;20097;50.832;19.100;2023-02-15T17:12:48;65.90;;;29.52;;
33780;SDS011;20097;50.832;19.100;2023-02-15T17:18:02;60.80;;;28.00;;
33780;SDS011;20097;50.832;19.100;2023-02-15T17:23:17;60.35;;;29.48;;
33780;SDS011;20097;50.832;19.100;2023-02-15T17:28:31;63.17;;;31.50;;
33780;SDS011;20097;50.832;19.100;2023-02-15T17:33:36;70.95;;;32.05;;
33780;SDS011;20097;50.832;19.100;2023-02-15T17:38:59;67.55;;;34.92;;
33780;SDS011;20097;50.832;19.100;2023-02-15T17:44:09;79.43;;;36.78;;
33780;SDS011;20097;50.832;19.100;2023-02-15T17:49:18;96.80;;;44.50;;
33780;SDS011;20097;50.832;19.100;2023-02-15T17:54:30;90.00;;;45.22;;
33780;SDS011;20097;50.832;19.100;2023-02-15T17:59:54;103.50;;;49.20;;
33780;SDS011;20097;50.832;19.100;2023-02-15T18:05:16;103.90;;;53.75;;
33780;SDS011;20097;50.832;19.100;2023-02-15T18:10:38;108.50;;;54.67;;
33780;SDS011;20097;50.832;19.100;2023-02-15T18:16:01;124.35;;;60.47;;
33780;SDS011;20097;50.832;19.100;2023-02-15T18:21:06;130.10;;;59.75;;
33780;SDS011;20097;50.832;19.100;2023-02-15T18:26:16;136.55;;;64.45;;
33780;SDS011;20097;50.832;19.100;2023-02-15T18:31:24;160.07;;;76.30;;
33780;SDS011;20097;50.832;19.100;2023-02-15T18:36:29;159.07;;;75.32;;
33780;SDS011;20097;50.832;19.100;2023-02-15T18:41:37;156.73;;;75.68;;
33780;SDS011;20097;50.832;19.100;2023-02-15T18:46:44;131.27;;;64.93;;
33780;SDS011;20097;50.832;19.100;2023-02-15T18:51:49;131.55;;;62.00;;
33780;SDS011;20097;50.832;19.100;2023-02-15T18:56:55;140.75;;;65.32;;
33780;SDS011;20097;50.832;19.100;2023-02-15T19:02:05;137.93;;;66.28;;
33780;SDS011;20097;50.832;19.100;2023-02-15T19:07:15;140.10;;;62.20;;
33780;SDS011;20097;50.832;19.100;2023-02-15T19:12:24;130.82;;;60.20;;
33780;SDS011;20097;50.832;19.100;2023-02-15T19:17:32;118.68;;;57.60;;
33780;SDS011;20097;50.832;19.100;2023-02-15T19:22:37;117.95;;;58.28;;
33780;SDS011;20097;50.832;19.100;2023-02-15T19:27:42;119.18;;;54.80;;
33780;SDS011;20097;50.832;19.100;2023-02-15T19:32:49;112.00;;;54.05;;
33780;SDS011;20097;50.832;19.100;2023-02-15T19:37:55;115.28;;;52.15;;
33780;SDS011;20097;50.832;19.100;2023-02-15T19:43:02;97.78;;;49.42;;
33780;SDS011;20097;50.832;19.100;2023-02-15T19:48:11;101.10;;;48.20;;
33780;SDS011;20097;50.832;19.100;2023-02-15T19:53:19;95.80;;;47.60;;
33780;SDS011;20097;50.832;19.100;2023-02-15T19:58:25;102.25;;;44.78;;
33780;SDS011;20097;50.832;19.100;2023-02-15T20:03:32;99.25;;;48.47;;
33780;SDS011;20097;50.832;19.100;2023-02-15T20:08:36;91.35;;;44.85;;
33780;SDS011;20097;50.832;19.100;2023-02-15T20:13:41;87.60;;;42.80;;
33780;SDS011;20097;50.832;19.100;2023-02-15T20:18:49;96.72;;;42.33;;
33780;SDS011;20097;50.832;19.100;2023-02-15T20:23:53;82.10;;;41.90;;
33780;SDS011;20097;50.832;19.100;2023-02-15T20:28:57;83.80;;;41.08;;
33780;SDS011;20097;50.832;19.100;2023-02-15T20:34:03;84.18;;;42.67;;
33780;SDS011;20097;50.832;19.100;2023-02-15T20:39:12;85.50;;;42.30;;
33780;SDS011;20097;50.832;19.100;2023-02-15T20:44:22;83.72;;;40.83;;
33780;SDS011;20097;50.832;19.100;2023-02-15T20:49:31;82.78;;;43.67;;
33780;SDS011;20097;50.832;19.100;2023-02-15T20:54:37;78.78;;;39.78;;
33780;SDS011;20097;50.832;19.100;2023-02-15T20:59:43;81.75;;;38.97;;
33780;SDS011;20097;50.832;19.100;2023-02-15T21:04:49;76.13;;;39.30;;
33780;SDS011;20097;50.832;19.100;2023-02-15T21:09:54;85.20;;;39.17;;
33780;SDS011;20097;50.832;19.100;2023-02-15T21:14:58;77.70;;;37.40;;
33780;SDS011;20097;50.832;19.100;2023-02-15T21:20:07;77.00;;;36.88;;
33780;SDS011;20097;50.832;19.100;2023-02-15T21:25:17;86.55;;;39.28;;
33780;SDS011;20097;50.832;19.100;2023-02-15T21:30:28;71.53;;;35.35;;
33780;SDS011;20097;50.832;19.100;2023-02-15T21:35:34;77.05;;;36.80;;
33780;SDS011;20097;50.832;19.100;2023-02-15T21:40:39;78.18;;;37.83;;
33780;SDS011;20097;50.832;19.100;2023-02-15T21:45:46;83.97;;;39.83;;
33780;SDS011;20097;50.832;19.100;2023-02-15T21:51:09;75.32;;;37.38;;
33780;SDS011;20097;50.832;19.100;2023-02-15T21:56:32;83.73;;;39.30;;
33780;SDS011;20097;50.832;19.100;2023-02-15T22:01:38;90.03;;;40.40;;
33780;SDS011;20097;50.832;19.100;2023-02-15T22:06:48;83.95;;;39.22;;
33780;SDS011;20097;50.832;19.100;2023-02-15T22:11:53;83.57;;;41.08;;
33780;SDS011;20097;50.832;19.100;2023-02-15T22:16:57;81.20;;;36.85;;
33780;SDS011;20097;50.832;19.100;2023-02-15T22:22:03;83.35;;;39.28;;
33780;SDS011;20097;50.832;19.100;2023-02-15T22:27:09;81.07;;;38.75;;
33780;SDS011;20097;50.832;19.100;2023-02-15T22:32:22;81.78;;;37.53;;
33780;SDS011;20097;50.832;19.100;2023-02-15T22:37:30;75.40;;;36.90;;
33780;SDS011;20097;50.832;19.100;2023-02-15T22:42:34;92.22;;;39.88;;
33780;SDS011;20097;50.832;19.100;2023-02-15T22:52:45;84.77;;;40.47;;
33780;SDS011;20097;50.832;19.100;2023-02-15T22:57:51;82.50;;;39.78;;
33780;SDS011;20097;50.832;19.100;2023-02-15T23:02:57;80.97;;;39.00;;
33780;SDS011;20097;50.832;19.100;2023-02-15T23:08:04;81.32;;;39.22;;
33780;SDS011;20097;50.832;19.100;2023-02-15T23:13:16;82.60;;;38.90;;
33780;SDS011;20097;50.832;19.100;2023-02-15T23:18:28;86.10;;;38.55;;
33780;SDS011;20097;50.832;19.100;2023-02-15T23:23:37;84.35;;;41.47;;
33780;SDS011;20097;50.832;19.100;2023-02-15T23:28:44;85.93;;;39.35;;
33780;SDS011;20097;50.832;19.100;2023-02-15T23:33:50;78.50;;;38.38;;
33780;SDS011;20097;50.832;19.100;2023-02-15T23:38:57;76.30;;;38.60;;
33780;SDS011;20097;50.832;19.100;2023-02-15T23:44:26;79.00;;;37.72;;
33780;SDS011;20097;50.832;19.100;2023-02-15T23:49:31;80.78;;;39.35;;
33780;SDS011;20097;50.832;19.100;2023-02-15T23:54:36;84.32;;;40.58;;
33780;SDS011;20097;50.832;19.100;2023-02-15T23:59:41;76.13;;;37.45;;
